createdAt,value
2022-08-22T00:02:44.825Z,23.27
2022-08-22T00:02:56.363Z,21.40
2022-08-22T00:03:07.585Z,21.27
2022-08-22T00:03:09.860Z,21.32
2022-08-22T04:30:48.314Z,16.68
2022-08-22T04:31:48.268Z,16.64
2022-08-22T04:32:48.249Z,16.56
2022-08-22T04:33:48.239Z,16.67
2022-08-22T04:34:48.248Z,16.63
2022-08-22T04:35:48.294Z,16.63
2022-08-22T04:36:48.215Z,16.53
2022-08-22T04:37:48.197Z,16.52
2022-08-22T04:38:48.227Z,16.57
2022-08-22T04:39:48.284Z,16.48
2022-08-22T04:40:48.177Z,16.57
2022-08-22T04:41:48.153Z,16.57
2022-08-22T04:42:48.152Z,16.52
2022-08-22T04:43:48.158Z,16.63
2022-08-22T04:44:48.133Z,16.53
2022-08-22T04:45:48.130Z,16.58
2022-08-22T04:46:48.094Z,16.58
2022-08-22T04:47:54.065Z,16.57
2022-08-22T04:48:48.096Z,16.58
2022-08-22T04:49:48.068Z,16.63
2022-08-22T04:50:48.078Z,16.58
2022-08-22T04:51:48.054Z,16.56
2022-08-22T04:52:48.049Z,16.60
2022-08-22T04:53:48.034Z,16.61
2022-08-22T04:54:48.009Z,16.60
2022-08-22T04:55:48.031Z,16.68
2022-08-22T04:56:47.995Z,16.67
2022-08-22T04:57:47.981Z,16.68
2022-08-22T04:58:47.988Z,16.66
2022-08-22T04:59:47.961Z,16.64
2022-08-22T05:00:47.953Z,16.67
2022-08-22T05:01:47.971Z,16.66
2022-08-22T05:02:48.258Z,16.71
2022-08-22T05:03:47.937Z,16.75
2022-08-22T05:04:47.902Z,16.76
2022-08-22T05:05:47.921Z,16.67
2022-08-22T05:06:47.884Z,16.71
2022-08-22T05:07:47.866Z,16.71
2022-08-22T05:08:48.458Z,16.73
2022-08-22T05:09:48.845Z,16.73
2022-08-22T05:10:47.837Z,16.79
2022-08-22T05:11:47.843Z,16.81
2022-08-22T05:12:47.822Z,16.75
2022-08-22T05:13:47.832Z,16.79
2022-08-22T05:14:48.326Z,16.86
2022-08-22T05:15:47.781Z,16.83
2022-08-22T05:16:47.788Z,16.86
2022-08-22T05:17:47.781Z,16.91
2022-08-22T05:18:47.749Z,16.85
2022-08-22T05:19:47.759Z,16.83
2022-08-22T05:20:47.729Z,16.94
2022-08-22T05:21:47.719Z,16.88
2022-08-22T05:22:47.729Z,16.85
2022-08-22T05:23:47.699Z,16.94
2022-08-22T05:24:47.688Z,16.85
2022-08-22T05:25:47.702Z,16.93
2022-08-22T05:26:47.665Z,16.94
2022-08-22T05:27:47.658Z,17.04
2022-08-22T05:28:52.527Z,17.03
2022-08-22T05:29:48.648Z,17.12
2022-08-22T05:30:47.624Z,17.11
2022-08-22T05:31:47.652Z,17.08
2022-08-22T05:32:47.619Z,17.15
2022-08-22T05:33:47.593Z,17.15
2022-08-22T05:34:47.579Z,17.12
2022-08-22T05:35:50.794Z,17.15
2022-08-22T05:36:47.557Z,17.15
2022-08-22T05:37:47.556Z,17.11
2022-08-22T05:38:47.552Z,17.08
2022-08-22T05:39:47.607Z,17.18
2022-08-22T05:40:47.515Z,17.19
2022-08-22T05:41:47.515Z,17.21
2022-08-22T05:42:47.500Z,17.33
2022-08-22T05:43:47.478Z,17.31
2022-08-22T05:44:47.486Z,17.28
2022-08-22T05:45:47.467Z,17.30
2022-08-22T05:46:47.464Z,17.30
2022-08-22T05:47:47.434Z,17.25
2022-08-22T05:48:47.431Z,17.30
2022-08-22T05:49:47.413Z,17.34
2022-08-22T05:50:50.817Z,17.43
2022-08-22T05:51:47.428Z,17.40
2022-08-22T05:52:47.382Z,17.44
2022-08-22T05:53:47.375Z,17.48
2022-08-22T05:54:47.362Z,17.54
2022-08-22T05:55:47.345Z,17.56
2022-08-22T05:56:47.340Z,17.63
2022-08-22T05:57:47.350Z,17.63
2022-08-22T05:58:47.321Z,17.71
2022-08-22T05:59:47.314Z,17.59
2022-08-22T06:00:47.295Z,17.52
2022-08-22T06:01:47.313Z,17.59
2022-08-22T06:02:47.330Z,17.58
2022-08-22T06:03:47.740Z,17.64
2022-08-22T06:04:47.315Z,17.68
2022-08-22T06:05:47.263Z,17.77
2022-08-22T06:06:47.235Z,17.74
2022-08-22T06:07:47.244Z,17.92
2022-08-22T06:08:47.241Z,17.84
2022-08-22T06:09:47.209Z,17.82
2022-08-22T06:10:48.318Z,17.86
2022-08-22T06:11:51.572Z,17.96
2022-08-22T06:12:47.175Z,17.87
2022-08-22T06:13:47.392Z,17.95
2022-08-22T06:14:47.174Z,18.05
2022-08-22T06:15:48.143Z,18.12
2022-08-22T06:16:47.685Z,18.26
2022-08-22T06:17:47.127Z,18.29
2022-08-22T06:18:47.110Z,18.39
2022-08-22T06:19:47.142Z,18.44
2022-08-22T06:20:47.085Z,18.51
2022-08-22T06:21:47.093Z,18.54
2022-08-22T06:22:47.085Z,18.60
2022-08-22T06:23:47.055Z,18.69
2022-08-22T06:24:47.043Z,18.80
2022-08-22T06:25:47.055Z,18.87
2022-08-22T06:26:48.797Z,18.94
2022-08-22T06:27:47.009Z,19.02
2022-08-22T06:28:55.002Z,19.06
2022-08-22T06:29:48.025Z,19.21
2022-08-22T06:30:46.988Z,19.37
2022-08-22T06:31:46.959Z,19.22
2022-08-22T06:33:00.191Z,19.33
2022-08-22T06:33:47.961Z,19.46
2022-08-22T06:34:46.928Z,19.43
2022-08-22T06:35:47.840Z,19.51
2022-08-22T06:36:46.926Z,19.40
2022-08-22T06:37:46.897Z,19.48
2022-08-22T06:38:46.901Z,19.46
2022-08-22T06:39:46.914Z,19.46
2022-08-22T06:40:46.878Z,19.54
2022-08-22T06:41:46.851Z,19.58
2022-08-22T06:42:46.846Z,19.62
2022-08-22T06:43:46.838Z,19.69
2022-08-22T06:44:46.845Z,19.73
2022-08-22T06:45:46.828Z,19.78
2022-08-22T06:46:46.822Z,19.86
2022-08-22T06:48:00.648Z,20.03
2022-08-22T06:48:47.826Z,20.18
2022-08-22T06:49:46.770Z,20.36
2022-08-22T06:50:46.791Z,20.51
2022-08-22T06:51:46.747Z,20.61
2022-08-22T06:52:46.759Z,20.74
2022-08-22T06:53:48.147Z,20.87
2022-08-22T06:54:46.753Z,20.94
2022-08-22T06:55:46.700Z,20.91
2022-08-22T06:56:46.708Z,20.98
2022-08-22T06:57:46.682Z,20.80
2022-08-22T06:58:46.674Z,20.77
2022-08-22T06:59:46.683Z,20.89
2022-08-22T07:00:52.424Z,20.98
2022-08-22T07:01:47.697Z,21.13
2022-08-22T07:02:46.655Z,21.29
2022-08-22T07:03:46.699Z,21.32
2022-08-22T07:04:46.613Z,21.40
2022-08-22T07:05:46.602Z,21.42
2022-08-22T07:06:46.613Z,21.50
2022-08-22T07:07:46.611Z,21.61
2022-08-22T07:08:46.566Z,21.77
2022-08-22T07:09:46.555Z,21.84
2022-08-22T07:10:46.554Z,21.83
2022-08-22T07:11:46.549Z,21.94
2022-08-22T07:12:46.521Z,22.02
2022-08-22T07:13:46.636Z,22.14
2022-08-22T07:14:46.511Z,22.25
2022-08-22T07:15:46.495Z,22.30
2022-08-22T07:16:46.488Z,22.15
2022-08-22T07:17:46.470Z,22.12
2022-08-22T07:18:46.453Z,22.05
2022-08-22T07:19:46.449Z,21.90
2022-08-22T07:20:46.745Z,21.88
2022-08-22T07:21:46.445Z,21.86
2022-08-22T07:22:46.413Z,21.82
2022-08-22T07:23:46.493Z,21.77
2022-08-22T07:24:46.402Z,21.69
2022-08-22T07:25:47.332Z,21.67
2022-08-22T07:26:46.383Z,21.61
2022-08-22T07:27:48.985Z,21.56
2022-08-22T07:28:51.166Z,21.56
2022-08-22T07:29:47.342Z,21.38
2022-08-22T07:30:46.350Z,21.58
2022-08-22T07:31:46.333Z,21.65
2022-08-22T07:32:46.315Z,21.88
2022-08-22T07:33:46.299Z,21.96
2022-08-22T07:34:46.288Z,22.05
2022-08-22T07:35:53.190Z,22.15
2022-08-22T07:36:47.260Z,22.15
2022-08-22T07:37:46.254Z,22.28
2022-08-22T07:38:46.288Z,22.31
2022-08-22T07:39:46.286Z,22.47
2022-08-22T07:40:46.223Z,22.55
2022-08-22T07:41:46.206Z,22.61
2022-08-22T07:42:46.227Z,22.57
2022-08-22T07:43:46.193Z,22.76
2022-08-22T07:44:46.178Z,22.85
2022-08-22T07:45:46.172Z,22.72
2022-08-22T07:46:46.157Z,22.79
2022-08-22T07:47:49.642Z,22.91
2022-08-22T07:49:07.694Z,22.98
2022-08-22T07:49:49.898Z,23.16
2022-08-22T07:50:46.156Z,23.28
2022-08-22T07:51:46.110Z,23.42
2022-08-22T07:52:46.107Z,23.50
2022-08-22T07:53:46.079Z,23.54
2022-08-22T07:54:46.093Z,23.60
2022-08-22T07:55:49.778Z,23.68
2022-08-22T07:56:46.084Z,23.76
2022-08-22T07:57:46.058Z,23.94
2022-08-22T07:58:46.026Z,24.12
2022-08-22T07:59:46.017Z,24.15
2022-08-22T08:00:46.003Z,24.27
2022-08-22T08:01:46.023Z,24.35
2022-08-22T08:02:45.995Z,24.39
2022-08-22T08:03:45.995Z,24.43
2022-08-22T08:04:45.975Z,24.49
2022-08-22T08:05:45.977Z,24.68
2022-08-22T08:06:45.959Z,24.67
2022-08-22T08:07:45.945Z,24.73
2022-08-22T08:08:45.923Z,24.88
2022-08-22T08:09:45.926Z,24.99
2022-08-22T08:10:45.902Z,24.88
2022-08-22T08:11:45.893Z,24.76
2022-08-22T08:12:57.895Z,24.40
2022-08-22T08:13:46.871Z,24.28
2022-08-22T08:14:45.851Z,24.25
2022-08-22T08:15:45.856Z,24.22
2022-08-22T08:16:45.847Z,24.03
2022-08-22T08:17:45.850Z,24.08
2022-08-22T08:18:45.816Z,23.94
2022-08-22T08:19:45.812Z,23.76
2022-08-22T08:20:45.793Z,23.72
2022-08-22T08:21:45.816Z,23.72
2022-08-22T08:22:45.764Z,23.79
2022-08-22T08:23:45.782Z,23.73
2022-08-22T08:24:45.858Z,23.69
2022-08-22T08:25:45.748Z,23.79
2022-08-22T08:26:45.736Z,23.73
2022-08-22T08:27:45.728Z,23.72
2022-08-22T08:28:45.717Z,23.73
2022-08-22T08:29:45.696Z,23.69
2022-08-22T08:30:45.685Z,23.76
2022-08-22T08:31:45.694Z,23.69
2022-08-22T08:32:45.662Z,23.61
2022-08-22T08:33:45.660Z,23.66
2022-08-22T08:34:45.645Z,23.61
2022-08-22T08:36:02.532Z,23.68
2022-08-22T08:36:46.667Z,23.69
2022-08-22T08:37:45.608Z,23.50
2022-08-22T08:38:45.596Z,23.61
2022-08-22T08:39:45.674Z,23.63
2022-08-22T08:40:45.595Z,23.83
2022-08-22T08:41:45.568Z,23.87
2022-08-22T08:42:45.591Z,24.20
2022-08-22T08:43:45.540Z,24.31
2022-08-22T08:44:45.543Z,24.62
2022-08-22T08:45:45.519Z,24.69
2022-08-22T08:46:55.124Z,24.99
2022-08-22T08:47:46.506Z,25.06
2022-08-22T08:48:45.517Z,25.20
2022-08-22T08:49:45.481Z,25.42
2022-08-22T08:50:46.491Z,25.46
2022-08-22T08:51:45.460Z,25.58
2022-08-22T08:52:45.455Z,25.76
2022-08-22T08:53:45.443Z,25.75
2022-08-22T08:54:45.447Z,25.95
2022-08-22T08:55:45.412Z,26.01
2022-08-22T08:56:47.213Z,26.10
2022-08-22T08:57:45.398Z,26.32
2022-08-22T08:58:45.400Z,26.33
2022-08-22T08:59:45.407Z,26.32
2022-08-22T09:00:45.535Z,26.43
2022-08-22T09:01:45.414Z,26.69
2022-08-22T09:02:45.342Z,26.97
2022-08-22T09:03:45.334Z,27.04
2022-08-22T09:04:45.370Z,27.17
2022-08-22T09:05:45.329Z,27.14
2022-08-22T09:06:50.798Z,26.97
2022-08-22T09:07:45.286Z,26.94
2022-08-22T09:08:45.291Z,26.85
2022-08-22T09:09:45.289Z,26.88
2022-08-22T09:10:45.265Z,26.94
2022-08-22T09:11:45.244Z,26.87
2022-08-22T09:12:59.759Z,26.82
2022-08-22T09:13:46.266Z,26.81
2022-08-22T09:14:45.205Z,26.88
2022-08-22T09:15:58.534Z,26.91
2022-08-22T09:16:48.140Z,26.97
2022-08-22T09:17:46.202Z,26.88
2022-08-22T09:18:45.177Z,26.89
2022-08-22T09:19:45.166Z,26.91
2022-08-22T09:20:45.155Z,26.97
2022-08-22T09:21:45.167Z,26.85
2022-08-22T09:22:50.003Z,27.12
2022-08-22T09:23:46.120Z,27.18
2022-08-22T09:24:46.129Z,27.31
2022-08-22T09:25:45.110Z,27.44
2022-08-22T09:26:45.097Z,27.54
2022-08-22T09:27:45.082Z,27.67
2022-08-22T09:28:45.071Z,27.77
2022-08-22T09:29:51.424Z,27.90
2022-08-22T09:30:46.058Z,27.81
2022-08-22T09:31:47.921Z,27.78
2022-08-22T09:32:46.030Z,27.44
2022-08-22T09:33:45.036Z,27.54
2022-08-22T09:34:44.996Z,27.47
2022-08-22T09:35:45.007Z,27.60
2022-08-22T09:36:45.007Z,27.63
2022-08-22T09:37:44.985Z,27.65
2022-08-22T09:38:47.734Z,27.63
2022-08-22T09:39:44.983Z,27.67
2022-08-22T09:40:44.980Z,27.72
2022-08-22T09:41:44.931Z,27.70
2022-08-22T09:42:46.396Z,27.67
2022-08-22T09:43:45.189Z,27.81
2022-08-22T09:44:44.932Z,27.78
2022-08-22T09:45:44.894Z,27.77
2022-08-22T09:46:44.873Z,27.65
2022-08-22T09:47:44.866Z,27.70
2022-08-22T09:48:44.873Z,27.67
2022-08-22T09:49:44.858Z,27.85
2022-08-22T09:50:44.843Z,28.00
2022-08-22T09:51:44.820Z,28.03
2022-08-22T09:52:44.813Z,28.18
2022-08-22T09:53:44.806Z,28.09
2022-08-22T09:54:44.832Z,28.31
2022-08-22T09:55:44.784Z,28.19
2022-08-22T09:56:44.808Z,28.15
2022-08-22T09:57:44.766Z,27.94
2022-08-22T09:58:44.765Z,27.74
2022-08-22T09:59:44.732Z,27.72
2022-08-22T10:00:44.806Z,27.65
2022-08-22T10:01:44.723Z,27.65
2022-08-22T10:02:44.737Z,27.66
2022-08-22T10:03:44.697Z,27.51
2022-08-22T10:04:44.679Z,27.54
2022-08-22T10:05:44.944Z,27.62
2022-08-22T10:06:44.661Z,27.63
2022-08-22T10:07:44.663Z,27.69
2022-08-22T10:08:45.988Z,27.74
2022-08-22T10:09:46.238Z,27.81
2022-08-22T10:10:44.623Z,27.74
2022-08-22T10:11:44.606Z,27.79
2022-08-22T10:12:44.820Z,27.63
2022-08-22T10:13:44.592Z,27.65
2022-08-22T10:14:50.422Z,27.69
2022-08-22T10:15:45.567Z,27.51
2022-08-22T10:16:44.580Z,27.54
2022-08-22T10:17:44.549Z,27.54
2022-08-22T10:18:52.803Z,27.39
2022-08-22T10:19:45.554Z,27.47
2022-08-22T10:20:44.685Z,27.28
2022-08-22T10:21:44.501Z,27.25
2022-08-22T10:22:44.754Z,27.31
2022-08-22T10:23:44.489Z,27.49
2022-08-22T10:24:44.485Z,27.65
2022-08-22T10:25:44.469Z,27.72
2022-08-22T10:26:44.446Z,27.84
2022-08-22T10:27:44.465Z,27.87
2022-08-22T10:28:44.444Z,27.88
2022-08-22T10:29:44.456Z,28.02
2022-08-22T10:30:44.444Z,28.04
2022-08-22T10:31:58.677Z,28.12
2022-08-22T10:32:45.390Z,28.12
2022-08-22T10:33:44.488Z,27.75
2022-08-22T10:34:44.356Z,27.74
2022-08-22T10:35:44.362Z,27.74
2022-08-22T10:36:44.350Z,27.88
2022-08-22T10:37:46.124Z,28.00
2022-08-22T10:38:46.862Z,27.87
2022-08-22T10:39:44.423Z,27.90
2022-08-22T10:40:44.294Z,27.92
2022-08-22T10:41:45.424Z,28.11
2022-08-22T10:42:44.277Z,28.17
2022-08-22T10:43:44.314Z,28.34
2022-08-22T10:44:44.289Z,28.30
2022-08-22T10:45:44.256Z,28.39
2022-08-22T10:46:44.248Z,28.37
2022-08-22T10:47:44.243Z,28.43
2022-08-22T10:48:44.215Z,28.31
2022-08-22T10:49:44.211Z,28.43
2022-08-22T10:50:44.204Z,28.68
2022-08-22T10:51:44.189Z,28.88
2022-08-22T10:52:44.189Z,28.93
2022-08-22T10:53:44.185Z,29.16
2022-08-22T10:54:44.154Z,29.42
2022-08-22T10:55:44.149Z,29.24
2022-08-22T10:56:44.134Z,29.09
2022-08-22T10:57:44.161Z,29.11
2022-08-22T10:58:44.171Z,29.19
2022-08-22T10:59:44.102Z,29.21
2022-08-22T11:00:46.567Z,29.15
2022-08-22T11:01:45.126Z,29.21
2022-08-22T11:02:44.931Z,29.26
2022-08-22T11:03:44.082Z,29.18
2022-08-22T11:04:44.074Z,29.19
2022-08-22T11:05:44.058Z,29.15
2022-08-22T11:06:45.037Z,29.19
2022-08-22T11:07:44.557Z,29.21
2022-08-22T11:08:44.017Z,29.30
2022-08-22T11:09:44.020Z,29.18
2022-08-22T11:10:43.988Z,29.15
2022-08-22T11:11:43.978Z,29.02
2022-08-22T11:12:44.562Z,28.92
2022-08-22T11:13:43.967Z,28.80
2022-08-22T11:14:44.784Z,28.73
2022-08-22T11:15:43.941Z,28.76
2022-08-22T11:16:43.924Z,29.02
2022-08-22T11:17:51.064Z,29.08
2022-08-22T11:18:44.972Z,29.12
2022-08-22T11:19:44.928Z,29.15
2022-08-22T11:20:43.876Z,29.15
2022-08-22T11:21:43.862Z,29.18
2022-08-22T11:22:43.858Z,29.33
2022-08-22T11:23:43.844Z,29.45
2022-08-22T11:24:46.507Z,29.63
2022-08-22T11:25:44.840Z,29.68
2022-08-22T11:26:47.004Z,29.79
2022-08-22T11:27:43.800Z,29.80
2022-08-22T11:28:43.797Z,29.95
2022-08-22T11:29:44.248Z,29.90
2022-08-22T11:30:44.109Z,30.10
2022-08-22T11:31:51.687Z,30.05
2022-08-22T11:32:44.747Z,30.05
2022-08-22T11:33:46.437Z,30.16
2022-08-22T11:34:44.844Z,30.38
2022-08-22T11:35:43.712Z,30.42
2022-08-22T11:36:46.351Z,30.45
2022-08-22T11:37:43.981Z,30.39
2022-08-22T11:38:43.692Z,30.45
2022-08-22T11:39:43.722Z,30.67
2022-08-22T11:40:43.664Z,30.88
2022-08-22T11:41:43.675Z,30.79
2022-08-22T11:42:47.469Z,30.91
2022-08-22T11:43:43.659Z,30.98
2022-08-22T11:44:50.886Z,30.97
2022-08-22T11:45:44.612Z,30.95
2022-08-22T11:46:43.607Z,30.75
2022-08-22T11:47:43.601Z,30.29
2022-08-22T11:48:48.548Z,30.13
2022-08-22T11:49:43.572Z,29.98
2022-08-22T11:50:43.565Z,29.83
2022-08-22T11:51:43.548Z,29.92
2022-08-22T11:52:43.549Z,29.80
2022-08-22T11:53:44.596Z,29.90
2022-08-22T11:54:43.519Z,29.98
2022-08-22T11:55:43.515Z,30.13
2022-08-22T11:56:43.503Z,30.38
2022-08-22T11:57:44.827Z,30.42
2022-08-22T11:58:43.482Z,30.42
2022-08-22T11:59:43.491Z,30.46
2022-08-22T12:00:43.458Z,30.54
2022-08-22T12:01:43.518Z,30.53
2022-08-22T12:02:43.442Z,30.51
2022-08-22T12:03:43.423Z,30.54
2022-08-22T12:04:44.049Z,30.62
2022-08-22T12:05:43.479Z,30.62
2022-08-22T12:06:43.412Z,30.76
2022-08-22T12:07:47.383Z,30.42
2022-08-22T12:08:44.390Z,30.34
2022-08-22T12:09:43.368Z,30.35
2022-08-22T12:10:43.354Z,30.46
2022-08-22T12:11:43.375Z,30.53
2022-08-22T12:12:43.330Z,30.67
2022-08-22T12:13:43.325Z,30.65
2022-08-22T12:14:43.323Z,30.72
2022-08-22T12:15:43.301Z,30.60
2022-08-22T12:16:44.972Z,30.43
2022-08-22T12:17:55.350Z,30.45
2022-08-22T12:18:44.263Z,30.61
2022-08-22T12:20:05.755Z,30.45
2022-08-22T12:20:45.534Z,30.45
2022-08-22T12:21:43.241Z,30.61
2022-08-22T12:22:48.716Z,30.58
2022-08-22T12:23:49.333Z,30.76
2022-08-22T12:24:43.209Z,30.65
2022-08-22T12:25:44.506Z,30.73
2022-08-22T12:26:43.183Z,30.73
2022-08-22T12:27:47.982Z,30.65
2022-08-22T12:28:43.161Z,30.54
2022-08-22T12:29:44.861Z,30.42
2022-08-22T12:30:43.141Z,30.45
2022-08-22T12:31:43.135Z,30.37
2022-08-22T12:32:43.860Z,30.11
2022-08-22T12:33:43.128Z,30.17
2022-08-22T12:34:43.096Z,30.34
2022-08-22T12:35:43.093Z,30.32
2022-08-22T12:36:43.097Z,30.49
2022-08-22T12:37:52.397Z,30.47
2022-08-22T12:38:44.072Z,30.38
2022-08-22T12:39:43.121Z,30.42
2022-08-22T12:40:43.692Z,30.37
2022-08-22T12:41:46.764Z,30.42
2022-08-22T12:42:43.028Z,30.27
2022-08-22T12:43:43.024Z,30.31
2022-08-22T12:44:43.003Z,30.27
2022-08-22T12:45:43.005Z,30.24
2022-08-22T12:46:46.764Z,30.24
2022-08-22T12:47:42.973Z,30.35
2022-08-22T12:48:42.955Z,30.39
2022-08-22T12:49:49.837Z,30.43
2022-08-22T12:50:43.955Z,30.49
2022-08-22T12:51:42.919Z,30.49
2022-08-22T12:52:44.342Z,30.43
2022-08-22T12:53:42.906Z,30.20
2022-08-22T12:54:42.907Z,30.15
2022-08-22T12:55:42.923Z,30.17
2022-08-22T12:56:47.360Z,30.24
2022-08-22T12:57:42.867Z,30.27
2022-08-22T12:58:42.868Z,30.31
2022-08-22T12:59:42.844Z,30.37
2022-08-22T13:00:42.911Z,30.31
2022-08-22T13:01:43.596Z,30.26
2022-08-22T13:02:42.810Z,30.17
2022-08-22T13:03:42.815Z,30.15
2022-08-22T13:04:42.834Z,30.17
2022-08-22T13:05:42.811Z,30.29
2022-08-22T13:06:42.763Z,30.31
2022-08-22T13:07:43.760Z,30.32
2022-08-22T13:08:42.759Z,30.29
2022-08-22T13:09:43.293Z,30.37
2022-08-22T13:10:42.739Z,30.22
2022-08-22T13:11:42.720Z,30.13
2022-08-22T13:12:44.078Z,30.07
2022-08-22T13:13:42.705Z,30.07
2022-08-22T13:14:43.711Z,30.04
2022-08-22T13:15:42.686Z,30.16
2022-08-22T13:16:48.657Z,30.16
2022-08-22T13:17:43.651Z,30.15
2022-08-22T13:18:44.745Z,30.16
2022-08-22T13:19:42.625Z,30.11
2022-08-22T13:20:43.393Z,30.23
2022-08-22T13:21:42.624Z,30.26
2022-08-22T13:22:45.546Z,30.15
2022-08-22T13:23:42.613Z,30.15
2022-08-22T13:24:52.333Z,30.04
2022-08-22T13:25:43.575Z,30.07
2022-08-22T13:26:43.368Z,30.20
2022-08-22T13:27:51.102Z,30.22
2022-08-22T13:28:43.535Z,30.23
2022-08-22T13:29:42.899Z,30.20
2022-08-22T13:30:42.525Z,30.26
2022-08-22T13:31:42.537Z,30.11
2022-08-22T13:32:44.486Z,30.10
2022-08-22T13:33:42.508Z,30.10
2022-08-22T13:34:43.680Z,30.24
2022-08-22T13:35:51.611Z,30.37
2022-08-22T13:36:43.473Z,30.47
2022-08-22T13:37:42.448Z,30.60
2022-08-22T13:38:46.405Z,30.76
2022-08-22T13:39:42.483Z,30.77
2022-08-22T13:40:42.433Z,30.64
2022-08-22T13:41:44.316Z,30.76
2022-08-22T13:42:42.388Z,30.80
2022-08-22T13:43:42.380Z,30.67
2022-08-22T13:44:42.389Z,30.70
2022-08-22T13:45:42.370Z,30.60
2022-08-22T13:47:10.817Z,30.51
2022-08-22T13:47:43.369Z,30.39
2022-08-22T13:48:42.334Z,30.39
2022-08-22T13:49:42.317Z,30.23
2022-08-22T13:50:53.920Z,30.23
2022-08-22T13:51:43.337Z,30.19
2022-08-22T13:52:42.283Z,30.29
2022-08-22T13:53:49.374Z,30.17
2022-08-22T13:54:43.289Z,30.05
2022-08-22T13:55:42.991Z,30.11
2022-08-22T13:56:47.129Z,30.11
2022-08-22T13:57:43.237Z,30.19
2022-08-22T13:58:42.225Z,30.05
2022-08-22T13:59:51.066Z,29.94
2022-08-22T14:00:48.742Z,29.95
2022-08-22T14:01:43.291Z,29.90
2022-08-22T14:02:43.536Z,29.82
2022-08-22T14:03:42.196Z,29.92
2022-08-22T14:04:42.163Z,29.82
2022-08-22T14:05:42.174Z,29.79
2022-08-22T14:06:43.994Z,29.80
2022-08-22T14:07:42.132Z,29.85
2022-08-22T14:08:45.997Z,29.83
2022-08-22T14:09:42.134Z,29.80
2022-08-22T14:10:42.109Z,29.74
2022-08-22T14:11:42.121Z,29.76
2022-08-22T14:12:50.011Z,29.60
2022-08-22T14:13:43.072Z,29.51
2022-08-22T14:14:42.064Z,29.41
2022-08-22T14:15:45.656Z,29.42
2022-08-22T14:16:42.056Z,29.48
2022-08-22T14:17:42.833Z,29.34
2022-08-22T14:18:45.620Z,29.36
2022-08-22T14:19:52.853Z,29.36
2022-08-22T14:20:43.013Z,29.39
2022-08-22T14:21:41.988Z,29.41
2022-08-22T14:22:41.997Z,29.41
2022-08-22T14:23:42.009Z,29.48
2022-08-22T14:24:45.609Z,29.57
2022-08-22T14:25:41.958Z,29.63
2022-08-22T14:26:47.256Z,29.60
2022-08-22T14:27:42.934Z,29.60
2022-08-22T14:28:41.958Z,29.55
2022-08-22T14:29:41.931Z,29.53
2022-08-22T14:30:41.903Z,29.57
2022-08-22T14:31:41.881Z,29.48
2022-08-22T14:32:42.044Z,29.57
2022-08-22T14:33:41.875Z,29.43
2022-08-22T14:34:41.893Z,29.36
2022-08-22T14:35:41.845Z,29.43
2022-08-22T14:36:41.850Z,29.39
2022-08-22T14:37:41.832Z,29.34
2022-08-22T14:38:46.167Z,29.41
2022-08-22T14:39:42.876Z,29.45
2022-08-22T14:40:41.793Z,29.42
2022-08-22T14:41:56.149Z,29.48
2022-08-22T14:42:44.399Z,29.52
2022-08-22T14:43:41.758Z,29.37
2022-08-22T14:44:41.768Z,29.42
2022-08-22T14:45:41.739Z,29.41
2022-08-22T14:46:41.785Z,29.37
2022-08-22T14:47:55.563Z,29.31
2022-08-22T14:48:42.907Z,29.30
2022-08-22T14:49:41.694Z,29.26
2022-08-22T14:50:42.248Z,29.33
2022-08-22T14:51:41.672Z,29.37
2022-08-22T14:52:41.685Z,29.30
2022-08-22T14:53:41.647Z,29.27
2022-08-22T14:54:42.697Z,29.16
2022-08-22T14:55:41.630Z,29.11
2022-08-22T14:56:41.641Z,29.16
2022-08-22T14:57:41.632Z,29.14
2022-08-22T14:58:41.617Z,29.23
2022-08-22T14:59:41.612Z,29.21
2022-08-22T15:00:41.606Z,29.21
2022-08-22T15:01:41.605Z,29.26
2022-08-22T15:02:41.556Z,29.24
2022-08-22T15:03:41.568Z,29.27
2022-08-22T15:04:41.591Z,29.28
2022-08-22T15:05:44.954Z,29.28
2022-08-22T15:06:47.745Z,29.28
2022-08-22T15:07:42.514Z,29.31
2022-08-22T15:08:42.302Z,29.37
2022-08-22T15:09:41.644Z,29.34
2022-08-22T15:10:42.386Z,29.37
2022-08-22T15:11:42.220Z,29.37
2022-08-22T15:12:41.457Z,29.41
2022-08-22T15:13:41.465Z,29.39
2022-08-22T15:14:41.429Z,29.42
2022-08-22T15:15:52.901Z,29.43
2022-08-22T15:16:42.421Z,29.41
2022-08-22T15:17:43.982Z,29.43
2022-08-22T15:18:41.397Z,29.53
2022-08-22T15:19:42.370Z,29.51
2022-08-22T15:20:49.149Z,29.52
2022-08-22T15:21:42.361Z,29.41
2022-08-22T15:22:41.340Z,29.46
2022-08-22T15:23:44.978Z,29.46
2022-08-22T15:24:42.868Z,29.45
2022-08-22T15:25:41.328Z,29.49
2022-08-22T15:26:41.290Z,29.41
2022-08-22T15:27:41.296Z,29.41
2022-08-22T15:28:52.583Z,29.43
2022-08-22T15:29:42.265Z,29.60
2022-08-22T15:30:44.454Z,29.61
2022-08-22T15:31:41.564Z,29.45
2022-08-22T15:32:42.234Z,29.51
2022-08-22T15:33:43.250Z,29.48
2022-08-22T15:34:41.210Z,29.41
2022-08-22T15:35:41.195Z,29.36
2022-08-22T15:36:41.239Z,29.36
2022-08-22T15:37:41.169Z,29.45
2022-08-22T15:38:42.109Z,29.41
2022-08-22T15:39:42.189Z,29.42
2022-08-22T15:40:41.139Z,29.42
2022-08-22T15:41:41.142Z,29.51
2022-08-22T15:42:41.120Z,29.49
2022-08-22T15:43:41.107Z,29.57
2022-08-22T15:44:44.190Z,29.46
2022-08-22T15:45:41.114Z,29.39
2022-08-22T15:46:41.083Z,29.52
2022-08-22T15:47:41.062Z,29.46
2022-08-22T15:48:41.082Z,29.39
2022-08-22T15:49:41.064Z,29.46
2022-08-22T15:50:41.930Z,29.41
2022-08-22T15:51:41.033Z,29.41
2022-08-22T15:52:41.021Z,29.37
2022-08-22T15:53:41.048Z,29.30
2022-08-22T15:54:46.918Z,29.34
2022-08-22T15:55:42.003Z,29.37
2022-08-22T15:56:41.728Z,29.28
2022-08-22T15:57:40.973Z,29.33
2022-08-22T15:58:48.599Z,29.34
2022-08-22T15:59:53.603Z,29.30
2022-08-22T16:00:44.836Z,29.27
2022-08-22T16:01:41.000Z,29.18
2022-08-22T16:02:40.912Z,29.19
2022-08-22T16:03:40.905Z,29.21
2022-08-22T16:04:40.910Z,29.19
2022-08-22T16:05:40.880Z,29.16
2022-08-22T16:06:42.518Z,29.18
2022-08-22T16:07:40.859Z,29.15
2022-08-22T16:08:40.843Z,29.00
2022-08-22T16:09:42.724Z,29.12
2022-08-22T16:10:40.823Z,28.93
2022-08-22T16:11:40.821Z,29.00
2022-08-22T16:12:40.808Z,28.89
2022-08-22T16:13:40.835Z,28.81
2022-08-22T16:14:40.774Z,28.76
2022-08-22T16:15:40.776Z,28.73
2022-08-22T16:16:40.760Z,28.71
2022-08-22T16:17:40.745Z,28.67
2022-08-22T16:18:40.741Z,28.61
2022-08-22T16:19:40.739Z,28.62
2022-08-22T16:20:40.720Z,28.59
2022-08-22T16:21:40.703Z,28.58
2022-08-22T16:22:44.529Z,28.58
2022-08-22T16:23:41.730Z,28.51
2022-08-22T16:24:40.672Z,28.52
2022-08-22T16:25:40.665Z,28.43
2022-08-22T16:26:40.649Z,28.46
2022-08-22T16:27:40.642Z,28.46
2022-08-22T16:28:57.985Z,28.44
2022-08-22T16:29:41.918Z,28.43
2022-08-22T16:30:40.607Z,28.39
2022-08-22T16:31:40.613Z,28.41
2022-08-22T16:32:40.607Z,28.48
2022-08-22T16:33:40.614Z,28.36
2022-08-22T16:34:40.579Z,28.34
2022-08-22T16:35:40.581Z,28.34
2022-08-22T16:36:40.572Z,28.27
2022-08-22T16:37:40.544Z,28.27
2022-08-22T16:38:40.526Z,28.27
2022-08-22T16:39:40.582Z,28.25
2022-08-22T16:40:40.511Z,28.31
2022-08-22T16:41:40.560Z,28.29
2022-08-22T16:42:40.502Z,28.27
2022-08-22T16:43:40.483Z,28.29
2022-08-22T16:44:41.483Z,28.30
2022-08-22T16:45:40.470Z,28.25
2022-08-22T16:46:40.451Z,28.34
2022-08-22T16:47:40.470Z,28.17
2022-08-22T16:48:40.460Z,28.09
2022-08-22T16:49:40.444Z,28.21
2022-08-22T16:50:40.412Z,28.09
2022-08-22T16:51:40.495Z,28.11
2022-08-22T16:52:40.398Z,28.04
2022-08-22T16:53:45.848Z,28.04
2022-08-22T16:54:40.373Z,28.06
2022-08-22T16:55:40.357Z,28.04
2022-08-22T16:56:40.356Z,28.07
2022-08-22T16:57:50.579Z,28.04
2022-08-22T16:58:56.893Z,27.96
2022-08-22T16:59:41.316Z,27.96
2022-08-22T17:00:40.303Z,27.88
2022-08-22T17:01:40.443Z,27.85
2022-08-22T17:02:40.286Z,27.85
2022-08-22T17:03:40.302Z,27.81
2022-08-22T17:04:40.270Z,27.79
2022-08-22T17:05:40.289Z,27.84
2022-08-22T17:06:40.262Z,27.75
2022-08-22T17:07:40.233Z,27.72
2022-08-22T17:08:40.217Z,27.70
2022-08-22T17:09:40.207Z,27.69
2022-08-22T17:10:40.225Z,27.72
2022-08-22T17:11:40.197Z,27.69
2022-08-22T17:12:40.179Z,27.67
2022-08-22T17:13:40.172Z,27.55
2022-08-22T17:14:40.155Z,27.55
2022-08-22T17:15:40.144Z,27.43
2022-08-22T17:16:40.162Z,27.49
2022-08-22T17:17:40.123Z,27.41
2022-08-22T17:18:40.113Z,27.50